Time;durP1;ratioP1;P1;durP2;ratioP2;P2;SDS_P1;SDS_P2;PMS_P1;PMS_P2;Temp;Humidity;BMP_temperature;BMP_pressure;BME280_temperature;BME280_humidity;BME280_pressure;Samples;Min_cycle;Max_cycle;Signal;HPM_P1;HPM_P2
2023/01/04 00:01:34;;;;;;;;;3.00;3.00;;;;;10.31;85.35;101632.28;5037023;28;45375;-65
2023/01/04 00:04:00;;;;;;;;;4.75;4.75;;;;;10.29;85.40;101628.84;5052928;28;45235;-65
2023/01/04 00:06:26;;;;;;;;;3.00;3.00;;;;;10.33;85.25;101638.38;5027913;28;45176;-65
2023/01/04 00:08:52;;;;;;;;;2.50;2.50;;;;;10.36;85.67;101648.00;5017557;28;45464;-64
2023/01/04 00:11:20;;;;;;;;;3.75;3.75;;;;;10.31;85.26;101634.94;4999261;28;45372;-64
2023/01/04 00:13:55;;;;;;;;;3.00;3.00;;;;;10.37;85.11;101639.19;5017024;28;45292;-64
2023/01/04 00:16:23;;;;;;;;;4.00;4.00;;;;;10.38;85.57;101644.41;5015300;28;45584;-64
2023/01/04 00:18:49;;;;;;;;;3.25;3.25;;;;;10.40;85.00;101644.41;5015555;28;46582;-64
2023/01/04 00:21:23;;;;;;;;;4.25;4.25;;;;;10.38;84.99;101646.19;5015686;28;45497;-64
2023/01/04 00:23:51;;;;;;;;;3.00;3.00;;;;;10.40;84.96;101638.28;5016058;28;45772;-63
2023/01/04 00:26:19;;;;;;;;;3.25;3.25;;;;;10.38;85.30;101639.16;5016314;28;45378;-65
2023/01/04 00:28:45;;;;;;;;;3.00;3.00;;;;;10.34;85.15;101619.06;5017866;28;45770;-66
2023/01/04 00:31:13;;;;;;;;;3.25;3.25;;;;;10.43;85.14;101622.44;5016690;28;45414;-63
2023/01/04 00:33:38;;;;;;;;;3.75;3.75;;;;;10.41;84.88;101613.72;5016707;28;45517;-64
2023/01/04 00:36:08;;;;;;;;;4.50;4.00;;;;;10.43;84.90;101619.78;5016538;28;45611;-63
2023/01/04 00:38:34;;;;;;;;;3.50;3.50;;;;;10.42;85.19;101632.09;5016465;28;45627;-65
2023/01/04 00:41:00;;;;;;;;;4.00;4.00;;;;;10.44;84.62;101630.31;5016228;28;45980;-64
2023/01/04 00:43:26;;;;;;;;;3.50;3.50;;;;;10.47;84.99;101617.06;5016314;28;45408;-67
2023/01/04 00:45:52;;;;;;;;;3.25;3.25;;;;;10.39;85.26;101608.47;5015543;28;45483;-65
2023/01/04 00:48:17;;;;;;;;;4.50;4.50;;;;;10.47;84.88;101619.72;5016584;28;45300;-65
2023/01/04 00:50:44;;;;;;;;;3.75;3.75;;;;;10.40;85.21;101606.72;5017802;28;45791;-64
2023/01/04 00:53:10;;;;;;;;;3.50;3.50;;;;;10.48;85.38;101610.03;5016747;28;45276;-64
2023/01/04 00:55:35;;;;;;;;;2.00;2.00;;;;;10.51;85.13;101615.22;5016834;28;45503;-63
2023/01/04 00:58:00;;;;;;;;;3.00;3.00;;;;;10.49;84.75;101617.03;5016217;28;46722;-65
2023/01/04 01:00:25;;;;;;;;;4.00;4.00;;;;;10.49;85.24;101606.50;5014967;28;52963;-65
2023/01/04 01:02:51;;;;;;;;;3.50;3.50;;;;;10.48;85.33;101610.91;5016259;28;45420;-65
2023/01/04 01:05:16;;;;;;;;;3.25;3.25;;;;;10.47;84.94;101603.91;5016031;28;45503;-64
2023/01/04 01:07:41;;;;;;;;;2.50;2.50;;;;;10.45;85.43;101596.94;5015782;28;46096;-64
2023/01/04 01:10:07;;;;;;;;;3.00;3.00;;;;;10.46;85.82;101586.41;5015475;28;62408;-64
2023/01/04 01:12:32;;;;;;;;;5.00;4.00;;;;;10.47;85.18;101587.25;5016560;28;45227;-63
2023/01/04 01:14:57;;;;;;;;;4.00;4.00;;;;;10.50;84.98;101582.81;5017123;28;49165;-63
2023/01/04 01:17:23;;;;;;;;;2.75;2.75;;;;;10.49;85.44;101580.19;5015230;28;60496;-64
2023/01/04 01:19:48;;;;;;;;;5.50;5.00;;;;;10.50;85.75;101580.19;5015694;28;59349;-64
2023/01/04 01:22:14;;;;;;;;;5.00;5.00;;;;;10.49;85.47;101569.69;5015309;28;45528;-65
2023/01/04 01:24:39;;;;;;;;;4.50;4.50;;;;;10.50;85.19;101572.28;5016049;28;45364;-66
2023/01/04 01:27:04;;;;;;;;;4.75;4.75;;;;;10.52;85.80;101572.22;5016105;28;46088;-64
2023/01/04 01:29:30;;;;;;;;;4.00;4.00;;;;;10.51;85.90;101576.63;5015887;28;45443;-65
2023/01/04 01:31:55;;;;;;;;;4.00;4.00;;;;;10.52;85.58;101586.25;5016014;28;49279;-64
2023/01/04 01:34:21;;;;;;;;;5.00;5.00;;;;;10.51;85.54;101583.66;5014377;28;47709;-64
2023/01/04 01:36:46;;;;;;;;;1.00;1.00;;;;;10.49;85.33;101580.19;5015941;28;45913;-65
2023/01/04 01:39:11;;;;;;;;;4.00;4.00;;;;;10.47;85.67;101579.38;5015660;28;45463;-65
2023/01/04 01:41:37;;;;;;;;;4.75;4.75;;;;;10.52;85.76;101590.66;5015742;28;45772;-64
2023/01/04 01:44:06;;;;;;;;;3.25;3.25;;;;;10.51;85.50;101579.28;5016476;28;45603;-65
2023/01/04 01:46:42;;;;;;;;;3.75;3.50;;;;;10.55;85.87;101598.47;5016093;28;45251;-65
2023/01/04 01:49:24;;;;;;;;;5.00;5.00;;;;;10.54;85.57;101586.22;5015232;28;45274;-64
2023/01/04 01:51:51;;;;;;;;;4.50;4.50;;;;;10.54;85.97;101586.22;5015618;28;45369;-64
2023/01/04 01:54:25;;;;;;;;;5.00;4.25;;;;;10.53;86.01;101568.69;5015458;28;45592;-64
2023/01/04 01:56:54;;;;;;;;;6.50;6.50;;;;;10.52;86.34;101573.09;5014888;28;46196;-65
2023/01/04 01:59:21;;;;;;;;;5.50;5.50;;;;;10.54;86.12;101577.47;5016784;28;45476;-64
2023/01/04 02:01:46;;;;;;;;;4.00;4.00;;;;;10.54;85.85;101586.22;5015719;28;45380;-63
2023/01/04 02:04:14;;;;;;;;;5.00;5.00;;;;;10.54;85.89;101578.31;5015368;28;45503;-65
2023/01/04 02:06:45;;;;;;;;;4.00;4.00;;;;;10.49;85.79;101567.03;5014871;28;46142;-63
2023/01/04 02:09:12;;;;;;;;;4.25;4.25;;;;;10.55;85.83;101563.41;5015366;28;45443;-64
2023/01/04 02:11:37;;;;;;;;;5.75;5.75;;;;;10.54;85.65;101567.78;5015436;28;45449;-64
2023/01/04 02:14:47;;;;;;;;;4.50;4.50;;;;;10.52;85.70;101570.47;5015534;28;45341;-64
2023/01/04 02:17:26;;;;;;;;;3.00;3.00;;;;;10.57;85.50;101572.97;5010112;28;46011;-65
2023/01/04 02:20:33;;;;;;;;;4.25;4.25;;;;;10.52;85.30;101561.72;5015048;28;45428;-64
2023/01/04 02:23:07;;;;;;;;;3.75;3.75;;;;;10.56;85.29;101566.00;4975715;28;45427;-64
2023/01/04 02:25:51;;;;;;;;;4.00;4.00;;;;;10.58;85.37;101568.59;5015055;28;45612;-65
2023/01/04 02:28:31;;;;;;;;;3.25;3.25;;;;;10.59;85.76;101580.84;5014752;28;45463;-65
2023/01/04 02:31:38;;;;;;;;;3.25;3.00;;;;;10.60;85.34;101580.84;5014720;28;45313;-65
2023/01/04 02:34:10;;;;;;;;;4.25;4.25;;;;;10.58;85.33;101574.72;5006786;28;45541;-64
2023/01/04 02:36:44;;;;;;;;;4.00;4.00;;;;;10.62;85.05;101580.78;5019251;28;45366;-65
2023/01/04 02:39:22;;;;;;;;;4.00;4.00;;;;;10.61;84.96;101574.66;5018181;28;46367;-64
2023/01/04 02:42:00;;;;;;;;;2.25;2.25;;;;;10.61;85.46;101579.94;5018387;28;45257;-64
2023/01/04 02:44:53;;;;;;;;;3.75;3.75;;;;;10.60;85.29;101575.56;5018350;28;45439;-64
2023/01/04 02:50:35;;;;;;;;;4.00;4.00;;;;;10.60;85.23;101596.63;5018292;28;45235;-65
2023/01/04 02:53:21;;;;;;;;;3.00;3.00;;;;;10.61;85.17;101582.56;5018218;28;45371;-64
2023/01/04 02:55:46;;;;;;;;;8.25;5.75;;;;;10.62;85.28;101584.28;5018421;28;45357;-65
2023/01/04 02:58:28;;;;;;;;;2.25;2.25;;;;;10.63;85.60;101591.28;5018886;28;45399;-63
2023/01/04 03:07:38;;;;;;;;;3.25;3.25;;;;;10.66;85.20;101585.06;5035741;28;45409;-64
2023/01/04 03:10:14;;;;;;;;;3.00;3.00;;;;;10.65;85.37;101586.84;5037884;28;45513;-64
2023/01/04 03:12:53;;;;;;;;;2.00;2.00;;;;;10.66;85.08;101569.28;5038083;28;46467;-64
2023/01/04 03:15:24;;;;;;;;;2.00;2.00;;;;;10.62;85.39;101562.38;5037612;28;45321;-64
2023/01/04 03:17:56;;;;;;;;;3.75;3.25;;;;;10.61;85.10;101548.34;5037795;28;45397;-64
2023/01/04 03:20:24;;;;;;;;;3.00;3.00;;;;;10.66;85.64;101567.53;5038164;28;45589;-64
2023/01/04 03:37:29;;;;;;;;;4.00;4.00;;;;;10.68;85.59;101564.00;5037697;28;45409;-64
2023/01/04 03:49:37;;;;;;;;;4.00;4.00;;;;;10.68;85.77;101528.00;5037062;28;45338;-64
2023/01/04 03:52:04;;;;;;;;;4.00;4.00;;;;;10.69;85.92;101523.63;5019124;28;45271;-64
2023/01/04 03:54:35;;;;;;;;;3.25;3.25;;;;;10.70;85.20;101520.94;5037412;28;45211;-65
2023/01/04 03:57:02;;;;;;;;;3.00;3.00;;;;;10.71;85.88;101524.44;5036837;28;45431;-64
2023/01/04 03:59:28;;;;;;;;;2.25;2.25;;;;;10.72;85.89;101528.81;5036988;28;45464;-63
2023/01/04 04:01:53;;;;;;;;;1.00;1.00;;;;;10.73;85.56;101527.91;5037206;28;45254;-65
2023/01/04 04:09:47;;;;;;;;;2.25;2.25;;;;;10.77;86.06;101500.59;5036883;28;45449;-64
2023/01/04 04:12:12;;;;;;;;;2.50;2.50;;;;;10.78;85.61;101500.53;5036556;28;60316;-64
2023/01/04 04:14:37;;;;;;;;;1.00;1.00;;;;;10.80;85.55;101508.41;5037193;28;45534;-64
2023/01/04 04:17:03;;;;;;;;;2.00;2.00;;;;;10.81;85.54;101507.50;5036162;28;64228;-64
2023/01/04 04:19:28;;;;;;;;;2.50;2.50;;;;;10.77;86.15;101503.22;5038193;28;45378;-63
2023/01/04 04:21:53;;;;;;;;;1.00;1.00;;;;;10.81;86.25;101512.78;5036653;28;46406;-64
2023/01/04 04:24:23;;;;;;;;;2.25;2.25;;;;;10.77;86.22;101500.59;5036591;28;45234;-64
2023/01/04 04:26:50;;;;;;;;;2.00;2.00;;;;;10.85;86.23;101509.16;5018675;28;47313;-64
2023/01/04 04:29:16;;;;;;;;;3.00;3.00;;;;;10.86;85.80;101518.78;5036606;28;45238;-64
2023/01/04 04:31:42;;;;;;;;;3.00;3.00;;;;;10.88;86.34;101506.44;5036942;28;45287;-63
2023/01/04 04:34:09;;;;;;;;;2.00;2.00;;;;;10.90;86.64;101507.25;5036747;28;45582;-64
2023/01/04 04:36:34;;;;;;;;;3.00;3.00;;;;;10.89;86.34;101521.31;5036359;28;46460;-64
2023/01/04 04:39:00;;;;;;;;;2.00;2.00;;;;;10.89;86.61;101504.66;5036382;28;45264;-64
2023/01/04 04:41:37;;;;;;;;;3.00;3.00;;;;;10.92;86.40;101505.44;5036649;28;45382;-63
2023/01/04 04:44:06;;;;;;;;;2.00;2.00;;;;;10.94;86.07;101508.03;5036657;28;45415;-64
2023/01/04 04:46:31;;;;;;;;;2.25;2.25;;;;;10.94;86.40;101522.06;5036057;28;46473;-65
2023/01/04 04:48:56;;;;;;;;;2.25;2.25;;;;;10.96;86.33;101511.47;5036046;28;51408;-65
2023/01/04 04:51:22;;;;;;;;;3.25;3.25;;;;;10.93;86.65;101512.44;5036368;28;46598;-65
2023/01/04 04:53:47;;;;;;;;;3.25;3.25;;;;;10.94;86.31;101508.91;5036545;28;45313;-65
2023/01/04 04:56:13;;;;;;;;;3.00;3.00;;;;;10.92;86.42;101509.84;5035436;28;46053;-64
2023/01/04 04:58:39;;;;;;;;;3.00;3.00;;;;;10.92;86.90;101507.19;5036724;28;45389;-63
2023/01/04 05:01:04;;;;;;;;;4.00;4.00;;;;;10.90;86.47;101506.38;5036945;28;45407;-65
2023/01/04 05:03:30;;;;;;;;;3.00;3.00;;;;;10.92;86.92;101505.44;5037191;28;45403;-64
2023/01/04 05:05:55;;;;;;;;;3.00;3.00;;;;;10.92;86.52;101505.44;5036018;28;46532;-65
2023/01/04 05:08:20;;;;;;;;;2.75;2.75;;;;;10.90;86.85;101507.25;5036163;28;46847;-65
2023/01/04 05:10:46;;;;;;;;;2.00;2.00;;;;;10.91;87.03;101494.94;5036575;28;45376;-63
2023/01/04 05:13:14;;;;;;;;;3.00;3.00;;;;;10.91;87.07;101485.31;5036146;28;45363;-64
2023/01/04 05:15:41;;;;;;;;;3.00;3.00;;;;;10.91;86.98;101485.31;5035773;28;46189;-64
2023/01/04 05:18:09;;;;;;;;;3.00;3.00;;;;;10.93;86.47;101499.28;5035795;28;45321;-64
2023/01/04 05:20:35;;;;;;;;;4.00;4.00;;;;;10.93;86.74;101491.38;5036002;28;45179;-64
2023/01/04 05:23:00;;;;;;;;;3.25;3.25;;;;;10.94;86.60;101484.34;5035784;28;45471;-67
2023/01/04 05:25:25;;;;;;;;;4.00;4.00;;;;;10.88;87.01;101473.97;5035703;28;46217;-65
2023/01/04 05:27:51;;;;;;;;;3.00;3.00;;;;;10.95;86.78;101486.94;5017666;28;45387;-64
2023/01/04 05:33:02;;;;;;;;;2.00;2.00;;;;;10.95;87.04;101500.09;5035731;28;45350;-64
2023/01/04 05:35:27;;;;;;;;;3.75;3.75;;;;;10.87;86.86;101486.28;5035062;28;45344;-63
2023/01/04 05:37:53;;;;;;;;;3.00;3.00;;;;;10.98;86.95;101495.66;5000939;28;45457;-63
2023/01/04 05:40:19;;;;;;;;;6.00;6.00;;;;;10.99;87.17;101500.03;5035825;28;45777;-63
2023/01/04 05:42:46;;;;;;;;;3.25;3.25;;;;;10.99;87.59;101489.50;5035720;28;45416;-63
2023/01/04 05:45:13;;;;;;;;;3.00;3.00;;;;;10.95;87.26;101484.31;5035030;28;46186;-64
2023/01/04 05:47:39;;;;;;;;;2.00;2.00;;;;;11.00;87.40;101492.06;5034829;28;45373;-66
2023/01/04 05:50:04;;;;;;;;;3.00;3.00;;;;;10.98;87.80;101488.59;5035742;28;45392;-63
2023/01/04 05:52:30;;;;;;;;;3.00;3.00;;;;;10.98;87.06;101500.94;5037525;28;45695;-64
2023/01/04 05:54:56;;;;;;;;;4.00;4.00;;;;;10.97;87.83;101502.69;5034917;28;45361;-63
2023/01/04 05:57:21;;;;;;;;;3.00;3.00;;;;;10.96;88.27;101493.06;5034870;28;45387;-63
2023/01/04 05:59:47;;;;;;;;;2.75;2.75;;;;;10.98;88.06;101506.19;5035364;28;45244;-63
2023/01/04 06:02:23;;;;;;;;;3.00;3.00;;;;;10.86;87.77;101487.19;5035071;28;45654;-63
2023/01/04 06:04:49;;;;;;;;;3.00;3.00;;;;;10.97;88.09;101507.94;5034920;28;45340;-63
2023/01/04 06:07:15;;;;;;;;;3.00;3.00;;;;;10.96;88.30;101520.25;5034168;28;45424;-64
2023/01/04 06:09:41;;;;;;;;;3.00;3.00;;;;;10.97;88.82;101510.56;5034546;28;45230;-63
2023/01/04 06:12:07;;;;;;;;;3.00;3.00;;;;;10.93;88.44;101506.31;5034852;28;45423;-64
2023/01/04 06:14:32;;;;;;;;;2.50;2.50;;;;;10.93;89.35;101501.91;5000819;28;46004;-65
2023/01/04 06:16:58;;;;;;;;;2.25;2.25;;;;;10.90;89.23;101509.91;5035286;28;45249;-63
2023/01/04 06:19:23;;;;;;;;;2.25;2.25;;;;;10.88;88.87;101503.81;5035911;28;45261;-64
2023/01/04 06:21:49;;;;;;;;;3.00;3.00;;;;;10.90;89.42;101507.25;5039121;28;45224;-63
2023/01/04 06:24:14;;;;;;;;;2.00;2.00;;;;;10.90;89.68;101509.91;5039203;28;45220;-64
2023/01/04 06:26:39;;;;;;;;;4.00;4.00;;;;;10.91;89.63;101508.09;5038596;28;45298;-64
2023/01/04 06:29:05;;;;;;;;;5.25;3.00;;;;;10.92;89.20;101496.69;5036407;28;45358;-64
2023/01/04 06:31:30;;;;;;;;;2.00;2.00;;;;;10.94;89.53;101497.50;5034571;28;46463;-64
2023/01/04 06:33:55;;;;;;;;;2.00;2.00;;;;;10.93;89.24;101495.78;5034603;28;45820;-63
2023/01/04 06:36:21;;;;;;;;;2.75;2.75;;;;;10.94;89.34;101482.59;5035351;28;45469;-64
2023/01/04 06:38:48;;;;;;;;;2.00;2.00;;;;;10.94;89.56;101493.13;5019019;28;45765;-65
2023/01/04 06:41:13;;;;;;;;;2.00;2.00;;;;;10.94;89.09;101498.38;5017488;28;45588;-64
2023/01/04 06:43:38;;;;;;;;;2.25;2.25;;;;;10.94;89.72;101498.38;5034330;28;45487;-64
2023/01/04 06:46:04;;;;;;;;;3.00;3.00;;;;;10.92;89.83;101504.56;5034354;28;52490;-65
2023/01/04 06:48:29;;;;;;;;;2.00;2.00;;;;;10.95;89.74;101509.75;5035553;28;45386;-63
2023/01/04 06:50:54;;;;;;;;;4.00;4.00;;;;;10.91;90.40;101495.81;5035024;28;47991;-63
2023/01/04 06:53:20;;;;;;;;;4.25;4.25;;;;;10.94;90.54;101514.16;5034596;28;48035;-63
2023/01/04 06:55:45;;;;;;;;;2.00;2.00;;;;;10.93;90.50;101512.44;5034282;28;45305;-63
2023/01/04 06:58:10;;;;;;;;;1.00;1.00;;;;;10.92;91.00;101515.97;5034370;28;45368;-64
2023/01/04 07:00:36;;;;;;;;;1.00;1.00;;;;;10.94;91.04;101518.56;5034201;28;45266;-64
2023/01/04 07:03:01;;;;;;;;;2.50;2.50;;;;;10.93;90.93;101515.06;5034190;28;45286;-63
2023/01/04 07:05:28;;;;;;;;;3.25;3.25;;;;;10.93;90.78;101509.81;5034079;28;45285;-65
2023/01/04 07:07:53;;;;;;;;;2.00;2.00;;;;;10.93;90.74;101512.44;5015696;28;45237;-64
2023/01/04 07:10:19;;;;;;;;;2.25;2.25;;;;;10.95;90.76;101505.38;5033293;28;45795;-62
2023/01/04 07:12:44;;;;;;;;;2.00;2.00;;;;;10.94;90.80;101503.63;5033626;28;46247;-64
2023/01/04 07:15:10;;;;;;;;;18.50;18.50;;;;;10.99;91.18;101507.91;5033175;28;51213;-63
2023/01/04 07:17:35;;;;;;;;;2.00;2.00;;;;;11.01;90.87;101511.38;5033941;28;45389;-64
2023/01/04 07:20:02;;;;;;;;;2.00;2.00;;;;;10.99;90.74;101500.88;5017411;28;45563;-64
2023/01/04 07:22:27;;;;;;;;;3.75;3.75;;;;;11.05;90.18;101503.34;5036646;28;46542;-65
2023/01/04 07:24:53;;;;;;;;;2.00;2.00;;;;;11.04;90.23;101501.59;5038445;28;45291;-64
2023/01/04 07:27:18;;;;;;;;;1.75;1.75;;;;;11.07;89.83;101498.03;5037395;28;45305;-66
2023/01/04 07:29:43;;;;;;;;;2.00;2.00;;;;;11.08;90.26;101492.72;5038525;28;45297;-64
2023/01/04 07:32:10;;;;;;;;;4.00;4.00;;;;;11.11;90.09;101489.16;5036490;28;64697;-67
2023/01/04 07:34:36;;;;;;;;;2.00;2.00;;;;;11.10;90.34;101490.06;5037152;28;45219;-64
2023/01/04 07:37:02;;;;;;;;;2.25;2.25;;;;;11.16;90.23;101500.41;5037241;28;45384;-64
2023/01/04 07:39:28;;;;;;;;;3.00;3.00;;;;;11.13;90.07;101503.13;5037384;28;45329;-64
2023/01/04 07:41:53;;;;;;;;;1.25;1.25;;;;;11.21;89.52;101509.06;5037195;28;46114;-64
2023/01/04 07:44:20;;;;;;;;;2.00;2.00;;;;;11.24;89.49;101513.38;5036845;28;45349;-64
2023/01/04 07:46:45;;;;;;;;;2.00;2.00;;;;;11.25;89.36;101517.75;5036737;28;45317;-64
2023/01/04 07:49:14;;;;;;;;;2.75;2.75;;;;;11.21;89.39;101511.69;5036780;28;45681;-64
2023/01/04 07:51:39;;;;;;;;;3.00;3.00;;;;;11.29;89.54;101518.50;5036562;28;46192;-64
2023/01/04 07:54:05;;;;;;;;;2.50;2.50;;;;;11.24;89.37;101498.44;5019409;28;45317;-64
2023/01/04 07:56:30;;;;;;;;;2.00;2.00;;;;;11.31;89.71;101517.56;5036459;28;51644;-63
2023/01/04 07:58:57;;;;;;;;;2.00;2.00;;;;;11.33;89.05;101509.59;5037866;28;45677;-64
2023/01/04 08:01:25;;;;;;;;;2.00;2.00;;;;;11.35;89.43;101510.44;5037648;28;46109;-64
2023/01/04 08:03:51;;;;;;;;;3.75;3.75;;;;;11.37;88.96;101511.25;5018607;28;45373;-63
2023/01/04 08:06:18;;;;;;;;;1.00;1.00;;;;;11.38;89.51;101512.97;5036713;28;45356;-65
2023/01/04 08:08:44;;;;;;;;;2.00;2.00;;;;;11.37;88.73;101508.59;5036880;28;45282;-65
2023/01/04 08:11:15;;;;;;;;;1.75;1.75;;;;;11.40;89.02;101514.66;5037158;28;45359;-64
2023/01/04 08:13:41;;;;;;;;;4.00;4.00;;;;;11.41;89.17;101507.63;5036649;28;45387;-64
2023/01/04 08:16:07;;;;;;;;;2.50;2.50;;;;;11.42;89.07;101514.59;5036559;28;45379;-64
2023/01/04 08:18:33;;;;;;;;;4.00;4.00;;;;;11.38;89.84;101497.16;5036777;28;45305;-68
2023/01/04 08:21:07;;;;;;;;;3.00;3.00;;;;;11.44;89.33;101506.69;5031139;28;45423;-69
2023/01/04 08:23:34;;;;;;;;;2.75;2.75;;;;;11.45;89.33;101503.13;5033027;28;45491;-74
2023/01/04 08:26:06;;;;;;;;;8.75;8.75;;;;;11.47;89.73;101510.06;5018635;28;45318;-72
2023/01/04 08:28:32;;;;;;;;;3.75;3.75;;;;;11.49;89.90;101510.03;5039793;28;45663;-72
2023/01/04 08:31:02;;;;;;;;;5.50;5.50;;;;;11.46;89.75;101499.59;5055339;28;45371;-72
2023/01/04 08:33:28;;;;;;;;;4.00;4.00;;;;;11.50;89.64;101507.34;5050039;28;45439;-71
2023/01/04 08:35:53;;;;;;;;;4.25;4.25;;;;;11.51;89.52;101506.44;5034339;28;45151;-71
2023/01/04 08:38:19;;;;;;;;;3.00;3.00;;;;;11.50;89.85;101502.06;5033532;28;45585;-71
2023/01/04 08:40:44;;;;;;;;;4.00;4.00;;;;;11.54;89.48;101502.88;5022870;28;49715;-65
2023/01/04 08:43:09;;;;;;;;;4.00;4.00;;;;;11.57;89.39;101507.16;5035895;28;45495;-68
2023/01/04 08:45:34;;;;;;;;;4.00;4.00;;;;;11.59;89.44;101515.88;5036485;28;61128;-67
2023/01/04 08:48:00;;;;;;;;;5.75;5.75;;;;;11.60;89.55;101518.50;5036941;28;45351;-68
2023/01/04 08:50:25;;;;;;;;;5.75;5.75;;;;;11.61;89.19;101529.88;5036599;28;46015;-70
2023/01/04 08:52:50;;;;;;;;;5.00;5.00;;;;;11.62;89.00;101516.66;5034061;28;45479;-65
2023/01/04 08:55:16;;;;;;;;;4.75;4.75;;;;;11.65;89.58;101515.69;5035821;28;45329;-68
2023/01/04 08:57:42;;;;;;;;;4.00;4.00;;;;;11.55;89.26;101497.53;5036515;28;45612;-65
2023/01/04 09:00:08;;;;;;;;;3.50;3.50;;;;;11.68;88.94;101521.75;5017115;28;48245;-68
2023/01/04 09:02:33;;;;;;;;;2.00;2.00;;;;;11.68;89.03;101523.56;5032886;28;45420;-71
2023/01/04 09:05:01;;;;;;;;;2.25;2.25;;;;;11.61;89.38;101519.34;5015338;28;45458;-69
2023/01/04 09:07:31;;;;;;;;;3.00;3.00;;;;;11.67;88.97;101522.66;5034164;28;45436;-71
2023/01/04 09:09:56;;;;;;;;;2.25;2.25;;;;;11.67;89.14;101520.03;5015733;28;47368;-70
2023/01/04 09:12:23;;;;;;;;;2.75;2.75;;;;;11.69;89.41;101514.72;5033222;28;45449;-70
2023/01/04 09:14:48;;;;;;;;;3.75;3.75;;;;;11.68;89.47;101513.00;5033473;28;45422;-70
2023/01/04 09:17:14;;;;;;;;;3.00;3.00;;;;;11.70;89.58;101503.28;5035084;28;45581;-69
2023/01/04 09:19:39;;;;;;;;;4.50;4.50;;;;;11.70;89.90;101505.91;5035168;28;45314;-71
2023/01/04 09:22:05;;;;;;;;;10.50;10.50;;;;;11.71;89.93;101510.28;5034930;28;45425;-70
2023/01/04 09:24:33;;;;;;;;;4.00;4.00;;;;;11.71;90.13;101493.59;5016986;28;46268;-68
2023/01/04 09:26:59;;;;;;;;;4.00;4.00;;;;;11.74;90.50;101496.13;5034769;28;45297;-67
2023/01/04 09:29:26;;;;;;;;;3.00;3.00;;;;;11.74;89.96;101488.22;5034546;28;53148;-65
2023/01/04 09:31:52;;;;;;;;;5.50;5.50;;;;;11.69;89.68;101491.00;5034699;28;45439;-65
2023/01/04 09:34:18;;;;;;;;;2.00;2.00;;;;;11.75;89.81;101496.09;5035033;28;45328;-68
2023/01/04 09:36:44;;;;;;;;;3.00;3.00;;;;;11.79;89.69;101504.75;5017386;28;45361;-68
2023/01/04 09:39:10;;;;;;;;;4.00;4.00;;;;;11.79;89.95;101497.72;5035074;28;46429;-67
2023/01/04 09:41:42;;;;;;;;;3.00;3.00;;;;;11.76;90.12;101483.75;5017174;28;45213;-67
2023/01/04 09:44:08;;;;;;;;;3.25;3.25;;;;;11.84;89.95;101493.19;5035857;28;45416;-69
2023/01/04 09:46:48;;;;;;;;;3.00;3.00;;;;;11.69;89.82;101462.03;5035731;28;45293;-69
2023/01/04 09:49:51;;;;;;;;;3.50;3.50;;;;;11.88;89.66;101490.44;5017133;28;45429;-67
2023/01/04 09:52:24;;;;;;;;;4.00;4.00;;;;;11.87;89.56;101494.84;5035245;28;45210;-68
2023/01/04 09:54:57;;;;;;;;;3.00;3.00;;;;;11.91;89.34;101501.75;5035507;28;45428;-69
2023/01/04 09:57:27;;;;;;;;;2.75;2.75;;;;;11.94;89.14;101503.44;5035434;28;45420;-69
2023/01/04 09:59:59;;;;;;;;;3.00;3.00;;;;;11.91;88.95;101508.81;5035079;28;46075;-67
2023/01/04 10:02:37;;;;;;;;;3.75;3.75;;;;;11.76;88.78;101484.66;5035343;28;45410;-68
2023/01/04 10:05:05;;;;;;;;;8.50;8.50;;;;;11.91;89.03;101506.16;5035119;28;45325;-67
2023/01/04 10:07:32;;;;;;;;;4.00;4.00;;;;;11.99;88.80;101514.69;5035547;28;45624;-71
2023/01/04 10:09:59;;;;;;;;;2.75;2.75;;;;;11.99;88.54;101504.16;5034598;28;45385;-70
2023/01/04 10:13:01;;;;;;;;;3.75;3.75;;;;;11.80;88.47;101473.09;5034644;28;45428;-69
2023/01/04 10:15:34;;;;;;;;;3.00;3.00;;;;;12.02;88.54;101508.47;5035162;28;45431;-70
2023/01/04 10:18:17;;;;;;;;;16.00;16.00;;;;;12.02;88.28;101503.22;5036209;28;45337;-71
2023/01/04 10:21:04;;;;;;;;;3.00;3.00;;;;;12.04;88.64;101504.91;5016669;28;48178;-70
2023/01/04 10:23:50;;;;;;;;;3.00;3.00;;;;;12.04;88.40;101510.19;5034871;28;45381;-69
2023/01/04 10:26:40;;;;;;;;;3.00;3.00;;;;;12.05;88.23;101498.72;5034328;28;45340;-70
2023/01/04 10:29:23;;;;;;;;;5.00;5.00;;;;;12.06;87.87;101508.34;5034593;28;45343;-71
2023/01/04 10:31:57;;;;;;;;;4.50;4.50;;;;;12.10;88.12;101511.75;5034411;28;46661;-67
2023/01/04 10:34:30;;;;;;;;;6.00;6.00;;;;;12.11;88.29;101513.47;5034559;28;45346;-68
2023/01/04 10:36:58;;;;;;;;;2.50;2.50;;;;;12.08;87.96;101503.00;5034658;28;45311;-68
2023/01/04 10:39:29;;;;;;;;;3.00;3.00;;;;;12.05;87.69;101500.47;5016882;28;45692;-66
2023/01/04 10:41:59;;;;;;;;;3.00;3.00;;;;;12.15;87.73;101514.25;5034638;28;45482;-69
2023/01/04 10:44:51;;;;;;;;;4.00;4.00;;;;;12.16;87.90;101495.72;5034357;28;45409;-66
2023/01/04 10:47:39;;;;;;;;;3.00;3.00;;;;;12.10;87.70;101493.28;5034722;28;45527;-69
2023/01/04 10:50:14;;;;;;;;;4.00;4.00;;;;;12.17;87.86;101505.34;5034841;28;45361;-66
2023/01/04 10:52:51;;;;;;;;;5.00;5.00;;;;;12.17;87.98;101493.97;5034500;28;45396;-68
2023/01/04 10:55:35;;;;;;;;;3.00;3.00;;;;;12.20;88.07;101501.78;5018678;28;45389;-69
2023/01/04 10:58:07;;;;;;;;;4.50;4.50;;;;;12.19;87.97;101494.78;5037979;28;45330;-68
2023/01/04 11:00:42;;;;;;;;;2.00;2.00;;;;;12.21;88.13;101503.50;5038119;28;45354;-66
2023/01/04 11:03:19;;;;;;;;;4.75;4.75;;;;;12.21;87.71;101500.84;5037376;28;47853;-65
2023/01/04 11:06:08;;;;;;;;;5.00;5.00;;;;;12.17;88.21;101486.03;5037433;28;45308;-68
2023/01/04 11:08:41;;;;;;;;;3.75;3.75;;;;;12.22;88.46;101489.41;5038402;28;45304;-68
2023/01/04 11:11:15;;;;;;;;;5.25;5.25;;;;;12.21;88.55;101491.19;5038759;28;45685;-69
2023/01/04 11:13:40;;;;;;;;;2.75;2.75;;;;;12.20;88.33;101492.09;5037650;28;46449;-69
2023/01/04 11:16:06;;;;;;;;;4.00;4.00;;;;;12.22;88.50;101492.91;5037628;28;45305;-67
2023/01/04 11:18:35;;;;;;;;;6.25;6.25;;;;;12.20;88.41;101485.94;5038710;28;45210;-67
2023/01/04 11:21:05;;;;;;;;;5.00;5.00;;;;;12.16;88.38;101474.63;5020080;28;45700;-67
2023/01/04 11:23:30;;;;;;;;;7.00;7.00;;;;;12.18;88.18;101474.59;5037592;28;46213;-66
2023/01/04 11:25:59;;;;;;;;;6.00;6.00;;;;;12.25;88.43;101479.63;5037188;28;45258;-69
2023/01/04 11:28:36;;;;;;;;;5.50;5.50;;;;;12.20;88.27;101470.13;5037718;28;45438;-69
2023/01/04 11:31:08;;;;;;;;;4.75;4.75;;;;;12.25;88.17;101469.06;5037561;28;45386;-67
2023/01/04 11:34:02;;;;;;;;;4.75;4.75;;;;;12.24;88.61;101461.19;5037760;28;45358;-67
2023/01/04 11:36:30;;;;;;;;;4.50;4.50;;;;;12.25;88.74;101470.84;5019626;28;45288;-69
2023/01/04 11:38:57;;;;;;;;;3.75;3.75;;;;;12.23;88.92;101460.34;5037344;28;45499;-69
2023/01/04 11:41:24;;;;;;;;;2.00;2.00;;;;;12.24;88.90;101466.47;5037351;28;45418;-68
2023/01/04 11:43:59;;;;;;;;;3.25;3.25;;;;;12.12;89.59;101444.88;5036902;28;46081;-70
2023/01/04 11:46:25;;;;;;;;;4.50;4.50;;;;;12.21;89.47;101458.66;5019357;28;45395;-72
2023/01/04 11:48:52;;;;;;;;;4.50;4.50;;;;;12.21;89.93;101470.09;5019521;28;45297;-67
2023/01/04 11:51:27;;;;;;;;;4.25;4.25;;;;;12.20;89.97;101470.13;5037103;28;45509;-68
2023/01/04 11:54:00;;;;;;;;;5.00;5.00;;;;;12.15;90.19;101453.59;5036791;28;45626;-67
2023/01/04 11:56:33;;;;;;;;;7.00;7.00;;;;;12.10;90.11;101441.41;5036970;28;45336;-69
2023/01/04 11:59:05;;;;;;;;;8.50;8.50;;;;;12.22;90.27;101458.63;5019207;28;45317;-68
2023/01/04 12:01:33;;;;;;;;;4.00;4.00;;;;;12.25;90.52;101455.00;5037447;28;45490;-68
2023/01/04 12:03:59;;;;;;;;;4.00;4.00;;;;;12.19;90.06;101434.09;5037339;28;45531;-66
2023/01/04 12:06:37;;;;;;;;;2.00;2.00;;;;;12.29;90.04;101448.72;5036034;28;45363;-68
2023/01/04 12:09:02;;;;;;;;;6.25;6.25;;;;;12.27;90.02;101450.53;5036892;28;45236;-72
2023/01/04 12:11:32;;;;;;;;;5.00;5.00;;;;;12.29;89.94;101438.16;5037187;28;45316;-67
2023/01/04 12:13:58;;;;;;;;;2.00;2.00;;;;;12.30;89.93;101439.88;5018482;28;46563;-69
2023/01/04 12:16:44;;;;;;;;;1.75;1.75;;;;;12.29;90.13;101446.06;5037636;28;45406;-71